Time;durP1;ratioP1;P1;durP2;ratioP2;P2;SDS_P1;SDS_P2;PMS_P1;PMS_P2;Temp;Humidity;BMP_temperature;BMP_pressure;BME280_temperature;BME280_humidity;BME280_pressure;Samples;Min_cycle;Max_cycle;Signal;HPM_P1;HPM_P2
2022/09/23 00:00:24;;;;;;;9.00;1.60;;;10.10;99.90;;;;;;5031864;28;20029;-56
2022/09/23 00:02:51;;;;;;;1.27;1.17;;;10.00;99.90;;;;;;5031018;28;20056;-56
2022/09/23 00:05:16;;;;;;;1.45;1.30;;;9.90;99.90;;;;;;5031825;28;20026;-57
2022/09/23 00:07:42;;;;;;;3.13;1.25;;;9.80;99.90;;;;;;5032029;28;20036;-56
2022/09/23 00:10:08;;;;;;;3.88;1.50;;;9.80;99.90;;;;;;5031612;28;20109;-57
2022/09/23 00:12:33;;;;;;;0.93;0.93;;;9.70;99.90;;;;;;5031020;28;20021;-56
2022/09/23 00:14:59;;;;;;;2.63;1.38;;;9.60;99.90;;;;;;5031402;28;20087;-56
2022/09/23 00:17:25;;;;;;;2.28;1.30;;;9.60;99.90;;;;;;5031410;28;20033;-56
2022/09/23 00:19:50;;;;;;;2.20;1.48;;;9.60;99.90;;;;;;5029817;28;20068;-58
2022/09/23 00:22:16;;;;;;;2.78;1.30;;;9.50;99.90;;;;;;5031312;28;20029;-57
2022/09/23 00:24:41;;;;;;;2.53;1.40;;;9.40;99.90;;;;;;5030926;28;20022;-58
2022/09/23 00:27:07;;;;;;;2.20;1.52;;;9.40;99.90;;;;;;5031221;28;20395;-58
2022/09/23 00:29:32;;;;;;;3.38;1.55;;;9.30;99.90;;;;;;5031222;28;20028;-57
2022/09/23 00:31:58;;;;;;;2.33;1.38;;;9.30;99.90;;;;;;5031117;28;20107;-58
2022/09/23 00:34:23;;;;;;;2.75;1.50;;;9.20;99.90;;;;;;5030581;28;20022;-57
2022/09/23 00:36:49;;;;;;;1.90;1.60;;;9.30;99.90;;;;;;5029727;28;20119;-57
2022/09/23 00:39:14;;;;;;;3.80;1.80;;;9.20;99.90;;;;;;5031158;28;20613;-57
2022/09/23 00:41:40;;;;;;;1.48;1.38;;;9.30;99.90;;;;;;5031050;28;20479;-56
2022/09/23 00:44:44;;;;;;;2.25;1.50;;;9.20;99.90;;;;;;5030507;28;20167;-57
2022/09/23 00:47:48;;;;;;;1.35;1.20;;;9.10;99.90;;;;;;5029484;28;20037;-57
2022/09/23 00:50:34;;;;;;;2.13;1.60;;;9.10;99.90;;;;;;5030856;28;20029;-57
2022/09/23 00:53:02;;;;;;;2.90;1.75;;;9.10;99.90;;;;;;5030253;28;20052;-56
2022/09/23 00:55:33;;;;;;;2.33;1.30;;;9.20;99.90;;;;;;5030664;28;20056;-57
2022/09/23 00:58:01;;;;;;;2.08;1.58;;;9.10;99.90;;;;;;5029302;28;20032;-57
2022/09/23 01:00:27;;;;;;;2.40;1.50;;;9.20;99.90;;;;;;5030659;28;20108;-57
2022/09/23 01:02:53;;;;;;;1.77;1.42;;;9.20;99.90;;;;;;5030578;28;20096;-57
2022/09/23 01:05:19;;;;;;;2.20;1.40;;;9.20;99.90;;;;;;5030463;28;20018;-57
2022/09/23 01:07:45;;;;;;;3.10;1.77;;;9.20;99.90;;;;;;5030533;28;20029;-57
2022/09/23 01:10:13;;;;;;;3.08;1.50;;;9.20;99.90;;;;;;5030943;28;20033;-56
2022/09/23 01:12:56;;;;;;;2.10;1.48;;;9.20;99.90;;;;;;5029429;28;20053;-58
2022/09/23 01:15:36;;;;;;;1.83;1.40;;;9.20;99.90;;;;;;5030342;28;20026;-57
2022/09/23 01:18:12;;;;;;;1.92;1.40;;;9.20;99.90;;;;;;5030130;28;20033;-55
2022/09/23 01:21:05;;;;;;;1.98;1.60;;;9.10;99.90;;;;;;5030375;28;20033;-57
2022/09/23 01:24:09;;;;;;;2.10;1.65;;;9.10;99.90;;;;;;5028946;28;20029;-57
2022/09/23 01:26:51;;;;;;;1.60;1.50;;;9.10;99.90;;;;;;5030249;28;20271;-56
2022/09/23 01:29:22;;;;;;;1.55;1.40;;;9.10;99.90;;;;;;5030295;28;20029;-56
2022/09/23 01:32:07;;;;;;;3.08;1.45;;;9.10;99.90;;;;;;5030194;28;20017;-56
2022/09/23 01:34:47;;;;;;;2.92;1.90;;;9.10;99.90;;;;;;5029744;28;20388;-56
2022/09/23 01:37:42;;;;;;;2.03;1.40;;;9.10;99.90;;;;;;5030130;28;20025;-56
2022/09/23 01:40:20;;;;;;;1.88;1.50;;;9.10;99.90;;;;;;5030083;28;20087;-56
2022/09/23 01:42:59;;;;;;;3.55;1.88;;;9.10;99.90;;;;;;5029688;28;20435;-56
2022/09/23 01:45:42;;;;;;;3.92;1.50;;;9.10;99.90;;;;;;5030509;28;20025;-56
2022/09/23 01:48:22;;;;;;;2.97;1.70;;;9.10;99.90;;;;;;5030038;28;20030;-56
2022/09/23 01:50:59;;;;;;;2.78;1.67;;;9.00;99.90;;;;;;5030325;28;20039;-56
2022/09/23 01:53:42;;;;;;;2.28;1.85;;;9.00;99.90;;;;;;5029544;28;20029;-56
2022/09/23 01:56:22;;;;;;;2.17;1.70;;;9.00;99.90;;;;;;5029956;28;20029;-56
2022/09/23 01:59:04;;;;;;;1.98;1.55;;;8.90;99.90;;;;;;5029962;28;20021;-56
2022/09/23 02:01:36;;;;;;;2.83;1.70;;;8.90;99.90;;;;;;5030318;28;20052;-56
2022/09/23 02:04:16;;;;;;;2.20;1.65;;;8.90;99.90;;;;;;5029270;28;20021;-56
2022/09/23 02:06:49;;;;;;;4.83;2.23;;;8.90;99.90;;;;;;5029772;28;20368;-56
2022/09/23 02:09:18;;;;;;;3.70;1.90;;;8.80;99.90;;;;;;5029462;28;20657;-56
2022/09/23 02:11:47;;;;;;;4.57;2.22;;;8.80;99.90;;;;;;5028873;28;20132;-57
2022/09/23 02:14:38;;;;;;;1.95;1.73;;;8.80;99.90;;;;;;5029551;28;20025;-56
2022/09/23 02:17:09;;;;;;;1.92;1.67;;;8.80;99.90;;;;;;5030157;28;20048;-56
2022/09/23 02:19:46;;;;;;;4.38;2.28;;;8.80;99.90;;;;;;5028756;28;20479;-56
2022/09/23 02:22:34;;;;;;;4.15;2.20;;;8.70;99.90;;;;;;5030034;28;20029;-56
2022/09/23 02:24:59;;;;;;;2.67;1.90;;;8.70;99.90;;;;;;5032280;28;20049;-56
2022/09/23 02:27:55;;;;;;;2.63;2.03;;;8.70;99.90;;;;;;5033996;28;20036;-56
2022/09/23 02:30:27;;;;;;;3.28;2.78;;;8.70;99.90;;;;;;5026024;28;20072;-56
2022/09/23 02:33:14;;;;;;;3.05;2.33;;;8.70;99.90;;;;;;5033377;28;20025;-56
2022/09/23 02:36:11;;;;;;;3.83;2.08;;;8.70;99.90;;;;;;5033850;28;20101;-56
2022/09/23 02:38:42;;;;;;;6.20;1.73;;;8.60;99.90;;;;;;5032433;28;20185;-57
2022/09/23 02:41:14;;;;;;;2.50;1.75;;;8.60;99.90;;;;;;5033786;28;20014;-57
2022/09/23 02:44:01;;;;;;;4.55;1.73;;;8.60;99.90;;;;;;5033392;28;20056;-57
2022/09/23 02:46:28;;;;;;;2.92;2.00;;;8.50;99.90;;;;;;5032208;28;20026;-57
2022/09/23 02:49:09;;;;;;;3.30;2.20;;;8.50;99.90;;;;;;5033483;28;20029;-57
2022/09/23 02:51:37;;;;;;;4.15;2.53;;;8.50;99.90;;;;;;5033506;28;20033;-56
2022/09/23 02:54:06;;;;;;;2.90;1.90;;;8.50;99.90;;;;;;5032813;28;20029;-56
2022/09/23 02:56:32;;;;;;;3.83;2.42;;;8.40;99.90;;;;;;5033651;28;20036;-56
2022/09/23 02:58:58;;;;;;;3.33;2.47;;;8.40;99.90;;;;;;5033331;28;20032;-56
2022/09/23 03:01:53;;;;;;;2.50;2.28;;;8.40;99.90;;;;;;5033312;28;20022;-56
2022/09/23 03:04:18;;;;;;;3.50;2.45;;;8.30;99.90;;;;;;5032825;28;20022;-56
2022/09/23 03:06:43;;;;;;;4.13;2.10;;;8.30;99.90;;;;;;5033325;28;20501;-56
2022/09/23 03:09:24;;;;;;;3.90;2.13;;;8.20;99.90;;;;;;5033222;28;20105;-56
2022/09/23 03:11:58;;;;;;;2.45;1.83;;;8.20;99.90;;;;;;5033394;28;20026;-57
2022/09/23 03:15:00;;;;;;;3.47;2.40;;;8.10;99.90;;;;;;5032895;28;20372;-57
2022/09/23 03:17:36;;;;;;;3.85;2.10;;;8.00;99.90;;;;;;5029015;28;20065;-56
2022/09/23 03:20:21;;;;;;;4.40;3.03;;;8.00;99.90;;;;;;5033150;28;20040;-56
2022/09/23 03:22:52;;;;;;;3.30;2.58;;;7.90;99.90;;;;;;5032759;28;20450;-56
2022/09/23 03:25:22;;;;;;;3.08;2.25;;;7.90;99.90;;;;;;5033021;28;20136;-56
2022/09/23 03:27:49;;;;;;;3.83;2.67;;;7.80;99.90;;;;;;5032900;28;20030;-56
2022/09/23 03:30:14;;;;;;;2.80;2.00;;;7.80;99.90;;;;;;5032896;28;20175;-56
2022/09/23 03:32:45;;;;;;;2.72;2.05;;;7.70;99.90;;;;;;5031212;28;20116;-56
2022/09/23 03:35:12;;;;;;;3.75;2.38;;;7.70;99.90;;;;;;5032636;28;20026;-56
2022/09/23 03:37:46;;;;;;;3.88;2.45;;;7.60;99.90;;;;;;5032192;28;20395;-56
2022/09/23 03:40:20;;;;;;;2.53;2.30;;;7.60;99.90;;;;;;5033007;28;20091;-56
2022/09/23 03:42:47;;;;;;;3.78;2.40;;;7.50;99.90;;;;;;5032367;28;20384;-56
2022/09/23 03:45:17;;;;;;;3.45;2.22;;;7.50;99.90;;;;;;5032768;28;20519;-56
2022/09/23 03:47:43;;;;;;;3.90;2.50;;;7.40;99.90;;;;;;5032760;28;20071;-57
2022/09/23 03:50:09;;;;;;;3.17;2.70;;;7.50;99.90;;;;;;5032500;28;20116;-56
2022/09/23 03:52:35;;;;;;;5.05;2.88;;;7.40;99.90;;;;;;5032135;28;20032;-57
2022/09/23 03:55:01;;;;;;;5.40;2.65;;;7.50;99.90;;;;;;5032488;28;20026;-57
2022/09/23 03:57:26;;;;;;;3.92;2.70;;;7.50;99.90;;;;;;5032327;28;20041;-56
2022/09/23 03:59:52;;;;;;;3.33;2.30;;;7.50;99.90;;;;;;5032470;28;20022;-56
2022/09/23 04:02:19;;;;;;;4.43;3.20;;;7.40;99.90;;;;;;5032226;28;20096;-56
2022/09/23 04:04:44;;;;;;;3.13;2.30;;;7.40;99.90;;;;;;5032148;28;20052;-56
2022/09/23 04:07:11;;;;;;;4.35;2.67;;;7.30;99.90;;;;;;5032387;28;20061;-56
2022/09/23 04:09:37;;;;;;;6.57;3.40;;;7.30;99.90;;;;;;5032322;28;20083;-56
2022/09/23 04:12:03;;;;;;;4.15;3.03;;;7.30;99.90;;;;;;5032345;28;20017;-56
2022/09/23 04:14:29;;;;;;;3.10;2.15;;;7.20;99.90;;;;;;5031600;28;20094;-56
2022/09/23 04:16:55;;;;;;;5.38;2.70;;;7.20;99.90;;;;;;5032042;28;20113;-56
2022/09/23 04:19:21;;;;;;;3.33;2.75;;;7.10;99.90;;;;;;5032043;28;20287;-56
2022/09/23 04:21:47;;;;;;;4.03;2.63;;;7.10;99.90;;;;;;5031851;28;20136;-57
2022/09/23 04:24:13;;;;;;;4.10;2.78;;;7.00;99.90;;;;;;5031411;28;20030;-56
2022/09/23 04:26:40;;;;;;;3.33;2.75;;;7.00;99.90;;;;;;5031849;28;20033;-56
2022/09/23 04:29:06;;;;;;;3.03;2.40;;;7.00;99.90;;;;;;5030548;28;20101;-57
2022/09/23 04:31:32;;;;;;;4.30;2.55;;;6.90;99.90;;;;;;5031768;28;20021;-56
2022/09/23 04:33:59;;;;;;;3.45;2.72;;;6.90;99.90;;;;;;5031105;28;20017;-56
2022/09/23 04:36:25;;;;;;;2.90;2.40;;;6.90;99.90;;;;;;5031639;28;20029;-56
2022/09/23 04:38:51;;;;;;;4.22;2.58;;;6.90;99.90;;;;;;5031414;28;20552;-56
2022/09/23 04:41:17;;;;;;;3.38;2.63;;;6.80;99.90;;;;;;5031453;28;20037;-57
2022/09/23 04:43:44;;;;;;;4.00;2.70;;;6.80;99.90;;;;;;5031340;28;20510;-56
2022/09/23 04:46:11;;;;;;;5.35;2.72;;;6.80;99.90;;;;;;5031435;28;20060;-56
2022/09/23 04:48:38;;;;;;;5.50;3.20;;;6.80;99.90;;;;;;5031090;28;20145;-56
2022/09/23 04:51:06;;;;;;;5.05;2.80;;;6.80;99.90;;;;;;5031264;28;20026;-57
2022/09/23 04:53:34;;;;;;;4.22;3.22;;;6.70;99.90;;;;;;5030741;28;20120;-56
2022/09/23 04:56:05;;;;;;;3.53;2.50;;;6.70;99.90;;;;;;5031204;28;20025;-56
2022/09/23 04:58:33;;;;;;;5.20;3.03;;;6.70;99.90;;;;;;5031178;28;20364;-56
2022/09/23 05:01:14;;;;;;;4.95;3.17;;;6.60;99.90;;;;;;5031043;28;20014;-56
2022/09/23 05:03:41;;;;;;;3.15;2.72;;;6.70;99.90;;;;;;5030688;28;20021;-56
2022/09/23 05:06:07;;;;;;;10.15;3.15;;;6.70;99.90;;;;;;5029776;28;20026;-56
2022/09/23 05:08:34;;;;;;;4.05;2.72;;;6.60;99.90;;;;;;5031038;28;20108;-56
2022/09/23 05:11:03;;;;;;;7.88;3.72;;;6.60;99.90;;;;;;5029874;28;20037;-56
2022/09/23 05:13:30;;;;;;;5.10;2.75;;;6.70;99.90;;;;;;5030326;28;20048;-56
2022/09/23 05:16:01;;;;;;;4.53;3.40;;;6.60;99.90;;;;;;5031081;28;20475;-57
2022/09/23 05:18:31;;;;;;;5.55;3.60;;;6.60;99.90;;;;;;5030678;28;20037;-56
2022/09/23 05:20:57;;;;;;;7.93;4.20;;;6.60;99.90;;;;;;5030749;28;20076;-56
2022/09/23 05:23:23;;;;;;;4.20;3.15;;;6.60;99.90;;;;;;5030348;28;20407;-57
2022/09/23 05:26:02;;;;;;;4.38;3.05;;;6.70;99.90;;;;;;5030717;28;20426;-56
2022/09/23 05:28:31;;;;;;;6.10;2.83;;;6.70;99.90;;;;;;5029349;28;20409;-57
2022/09/23 05:31:03;;;;;;;9.93;3.70;;;6.70;99.90;;;;;;5030616;28;20032;-56
2022/09/23 05:33:29;;;;;;;4.63;3.17;;;6.70;99.90;;;;;;5030097;28;20025;-56
2022/09/23 05:35:54;;;;;;;5.25;3.53;;;6.80;99.90;;;;;;5030507;28;20021;-57
2022/09/23 05:38:20;;;;;;;6.35;3.65;;;6.80;99.90;;;;;;5030455;28;20129;-56
2022/09/23 05:40:45;;;;;;;5.50;3.47;;;6.90;99.90;;;;;;5030425;28;20542;-57
2022/09/23 05:43:11;;;;;;;4.72;3.75;;;6.90;99.90;;;;;;5029990;28;20022;-56
2022/09/23 05:45:37;;;;;;;6.70;3.85;;;7.00;99.90;;;;;;5030426;28;20029;-56
2022/09/23 05:48:02;;;;;;;4.25;3.47;;;7.00;99.90;;;;;;5030275;28;20106;-56
2022/09/23 05:50:28;;;;;;;6.18;4.03;;;7.10;99.90;;;;;;5030364;28;20417;-56
2022/09/23 05:52:54;;;;;;;5.50;3.90;;;7.20;99.90;;;;;;5029830;28;20078;-56
2022/09/23 05:55:19;;;;;;;7.18;3.45;;;7.30;99.90;;;;;;5030255;28;20048;-56
2022/09/23 05:57:45;;;;;;;4.80;2.92;;;7.30;99.90;;;;;;5028941;28;20022;-57
2022/09/23 06:00:11;;;;;;;4.85;3.72;;;7.40;99.90;;;;;;5032546;28;20032;-56
2022/09/23 06:02:36;;;;;;;4.90;3.70;;;7.40;99.90;;;;;;5033895;28;20026;-57
2022/09/23 06:05:02;;;;;;;5.10;3.78;;;7.50;99.90;;;;;;5034630;28;20025;-56
2022/09/23 06:07:27;;;;;;;7.00;3.78;;;7.50;99.90;;;;;;5034286;28;20029;-56
2022/09/23 06:09:53;;;;;;;4.63;3.38;;;7.60;99.90;;;;;;5034127;28;20025;-56
2022/09/23 06:12:19;;;;;;;5.72;3.22;;;7.70;99.90;;;;;;5033891;28;20055;-57
2022/09/23 06:14:45;;;;;;;6.18;2.85;;;7.70;99.90;;;;;;5033970;28;20376;-56
2022/09/23 06:17:10;;;;;;;6.80;3.22;;;7.80;99.90;;;;;;5034001;28;20104;-57
2022/09/23 06:19:36;;;;;;;6.35;3.60;;;7.90;99.90;;;;;;5033872;28;20040;-56
2022/09/23 06:22:02;;;;;;;7.40;4.55;;;7.90;99.90;;;;;;5034514;28;20025;-56
2022/09/23 06:24:27;;;;;;;7.97;4.63;;;8.00;99.90;;;;;;5033495;28;20129;-57
2022/09/23 06:26:54;;;;;;;7.07;4.20;;;8.10;99.90;;;;;;5033924;28;20571;-56
2022/09/23 06:29:19;;;;;;;5.85;3.95;;;8.20;99.90;;;;;;5032569;28;20036;-56
2022/09/23 06:31:47;;;;;;;10.55;4.30;;;8.40;99.90;;;;;;5032496;28;20040;-56
2022/09/23 06:34:13;;;;;;;9.05;3.03;;;8.40;99.90;;;;;;5033348;28;20029;-57
2022/09/23 06:36:40;;;;;;;7.57;3.55;;;8.60;99.90;;;;;;5033770;28;20471;-56
2022/09/23 06:39:05;;;;;;;5.80;4.20;;;8.70;99.90;;;;;;5033618;28;20402;-57
2022/09/23 06:41:31;;;;;;;5.57;3.75;;;8.90;99.90;;;;;;5033837;28;20096;-56
2022/09/23 06:43:57;;;;;;;9.40;3.65;;;9.10;99.90;;;;;;5033390;28;20032;-57
2022/09/23 06:46:22;;;;;;;5.68;3.22;;;9.30;99.90;;;;;;5032228;28;20017;-58
2022/09/23 06:48:49;;;;;;;5.80;3.88;;;9.50;99.90;;;;;;5033598;28;20040;-57
2022/09/23 06:51:18;;;;;;;5.95;2.92;;;9.60;99.90;;;;;;5033478;28;20032;-57
2022/09/23 06:53:45;;;;;;;3.85;2.63;;;9.80;99.90;;;;;;5031635;28;20558;-57
2022/09/23 06:56:10;;;;;;;5.18;2.95;;;10.00;99.90;;;;;;5033482;28;20079;-57
2022/09/23 06:58:38;;;;;;;6.05;3.00;;;10.10;99.90;;;;;;5033291;28;20430;-57
2022/09/23 07:01:14;;;;;;;8.43;3.88;;;10.20;99.90;;;;;;5031954;28;20052;-57
2022/09/23 07:03:40;;;;;;;5.18;3.15;;;10.30;99.90;;;;;;5033011;28;20021;-57
2022/09/23 07:06:06;;;;;;;3.13;2.50;;;10.40;99.90;;;;;;5033214;28;20379;-57
2022/09/23 07:08:32;;;;;;;3.28;2.65;;;10.50;99.90;;;;;;5033212;28;20025;-57
2022/09/23 07:11:00;;;;;;;4.70;2.70;;;10.70;99.90;;;;;;5031793;28;20082;-57
2022/09/23 07:13:26;;;;;;;5.35;2.90;;;10.90;99.90;;;;;;5032596;28;20017;-57
2022/09/23 07:15:53;;;;;;;3.40;2.83;;;11.10;99.90;;;;;;5033353;28;20061;-57
2022/09/23 07:18:22;;;;;;;6.32;2.85;;;11.20;99.90;;;;;;5032830;28;20036;-57
2022/09/23 07:20:48;;;;;;;4.72;2.90;;;11.40;99.90;;;;;;5032890;28;20036;-57
2022/09/23 07:23:14;;;;;;;5.57;3.28;;;11.60;99.90;;;;;;5032550;28;20024;-57
2022/09/23 07:25:41;;;;;;;2.97;2.60;;;11.70;99.90;;;;;;5032826;28;20018;-57
2022/09/23 07:28:06;;;;;;;7.00;2.80;;;11.80;99.90;;;;;;5032767;28;20029;-57
2022/09/23 07:30:36;;;;;;;5.57;3.10;;;12.00;99.90;;;;;;5032708;28;20057;-57
2022/09/23 07:33:01;;;;;;;4.75;2.80;;;12.00;99.90;;;;;;5032178;28;20026;-57
2022/09/23 07:35:27;;;;;;;5.22;2.90;;;12.20;99.90;;;;;;5032793;28;20420;-57
2022/09/23 07:37:53;;;;;;;4.78;2.70;;;12.20;99.90;;;;;;5032600;28;20026;-57
2022/09/23 07:40:18;;;;;;;3.72;2.70;;;12.40;99.90;;;;;;5032579;28;20276;-57
2022/09/23 07:42:44;;;;;;;3.28;2.58;;;12.50;99.90;;;;;;5032061;28;20026;-57
2022/09/23 07:45:10;;;;;;;5.32;2.80;;;12.60;99.90;;;;;;5032175;28;20087;-57
2022/09/23 07:47:38;;;;;;;5.32;2.60;;;12.80;99.90;;;;;;5032398;28;20049;-57
2022/09/23 07:50:05;;;;;;;5.50;2.63;;;12.90;99.90;;;;;;5032317;28;20087;-57
2022/09/23 07:52:30;;;;;;;4.15;2.30;;;13.10;99.90;;;;;;5030544;28;20033;-57
2022/09/23 07:54:56;;;;;;;7.28;2.53;;;13.20;99.90;;;;;;5032280;28;20033;-57
2022/09/23 07:57:21;;;;;;;4.95;2.50;;;13.40;99.90;;;;;;5032269;28;20030;-57
2022/09/23 07:59:47;;;;;;;5.43;2.40;;;13.50;99.90;;;;;;5032224;28;20026;-58
2022/09/23 08:02:13;;;;;;;3.50;2.05;;;13.60;99.90;;;;;;5032100;28;20025;-57
2022/09/23 08:04:39;;;;;;;6.70;2.45;;;13.70;99.90;;;;;;5031699;28;20100;-57
2022/09/23 08:07:05;;;;;;;4.03;2.00;;;13.80;99.90;;;;;;5032058;28;20395;-57
2022/09/23 08:09:37;;;;;;;6.15;2.40;;;13.90;99.90;;;;;;5032103;28;20032;-57
2022/09/23 08:12:02;;;;;;;3.03;1.55;;;14.00;99.90;;;;;;5031948;28;20514;-57
2022/09/23 08:14:28;;;;;;;2.58;1.92;;;14.20;99.90;;;;;;5031473;28;20033;-57
2022/09/23 08:16:53;;;;;;;8.25;2.10;;;14.40;99.90;;;;;;5031727;28;20097;-57
2022/09/23 08:19:19;;;;;;;3.15;2.03;;;14.70;99.90;;;;;;5032023;28;20045;-57
2022/09/23 08:21:46;;;;;;;2.65;1.67;;;15.20;99.90;;;;;;5031486;28;20566;-57
2022/09/23 08:24:17;;;;;;;4.10;1.80;;;15.80;99.90;;;;;;5031160;28;20030;-58
2022/09/23 08:26:44;;;;;;;8.35;1.70;;;16.70;99.90;;;;;;5031709;28;20025;-57
2022/09/23 08:29:17;;;;;;;4.43;1.20;;;17.20;95.10;;;;;;5032008;28;20116;-57
2022/09/23 08:31:43;;;;;;;3.95;1.77;;;18.00;94.10;;;;;;5031861;28;20017;-58
2022/09/23 08:34:09;;;;;;;2.45;1.60;;;18.70;91.80;;;;;;5031003;28;20494;-58
2022/09/23 08:36:35;;;;;;;3.78;1.33;;;19.60;89.70;;;;;;5031475;28;20056;-58
2022/09/23 08:39:00;;;;;;;3.80;1.45;;;20.80;90.00;;;;;;5031340;28;20507;-58
2022/09/23 08:41:48;;;;;;;2.67;1.35;;;21.80;81.10;;;;;;5031814;28;20025;-58
2022/09/23 08:44:32;;;;;;;2.80;1.48;;;22.50;74.70;;;;;;5030919;28;20017;-57
2022/09/23 08:47:26;;;;;;;3.53;1.20;;;22.70;70.10;;;;;;5031272;28;20029;-58
2022/09/23 08:50:03;;;;;;;1.60;1.35;;;22.50;72.00;;;;;;5029981;28;20070;-58
2022/09/23 08:52:53;;;;;;;2.55;1.40;;;22.90;69.00;;;;;;5030782;28;20095;-58
2022/09/23 08:55:28;;;;;;;1.55;1.27;;;22.70;68.00;;;;;;5031184;28;20021;-58
2022/09/23 08:58:05;;;;;;;1.52;1.30;;;22.80;69.40;;;;;;5031102;28;20368;-58
2022/09/23 09:00:39;;;;;;;1.27;1.15;;;23.30;69.10;;;;;;5031432;28;20048;-57
2022/09/23 09:03:22;;;;;;;1.67;1.58;;;23.60;67.90;;;;;;5030381;28;20112;-58
2022/09/23 09:05:48;;;;;;;2.22;1.30;;;23.70;66.10;;;;;;5030933;28;20024;-58
2022/09/23 09:08:23;;;;;;;1.75;1.52;;;23.70;67.10;;;;;;5031116;28;20033;-57
2022/09/23 09:10:52;;;;;;;2.42;1.67;;;24.70;67.40;;;;;;5030839;28;20032;-58
2022/09/23 09:13:56;;;;;;;1.70;1.08;;;26.00;63.90;;;;;;5030340;28;20180;-58
2022/09/23 09:17:09;;;;;;;2.70;1.50;;;26.50;60.60;;;;;;5027082;28;20034;-57
2022/09/23 09:20:04;;;;;;;1.83;1.20;;;27.60;63.20;;;;;;5018053;28;20088;-58
2022/09/23 09:22:41;;;;;;;2.92;1.13;;;28.50;60.20;;;;;;5030208;28;20021;-57
2022/09/23 09:25:35;;;;;;;1.92;1.20;;;29.10;54.40;;;;;;5031100;28;20064;-58
2022/09/23 09:28:02;;;;;;;6.80;1.30;;;29.40;55.20;;;;;;5030675;28;20643;-57
2022/09/23 09:30:27;;;;;;;1.65;1.50;;;29.40;53.20;;;;;;5030772;28;20053;-55
2022/09/23 09:33:05;;;;;;;1.90;1.42;;;29.30;52.30;;;;;;5030145;28;20049;-56
2022/09/23 09:36:07;;;;;;;1.80;1.15;;;28.80;55.50;;;;;;5030408;28;20024;-56
2022/09/23 09:38:34;;;;;;;2.55;1.17;;;28.60;55.90;;;;;;5026888;28;20511;-57
2022/09/23 09:41:10;;;;;;;5.95;1.17;;;28.30;54.00;;;;;;5030678;28;20025;-57
2022/09/23 09:43:39;;;;;;;1.55;1.25;;;27.70;55.10;;;;;;5030083;28;20484;-58
2022/09/23 09:46:23;;;;;;;1.52;1.10;;;27.30;55.20;;;;;;5030387;28;20373;-58
2022/09/23 09:49:32;;;;;;;1.50;0.98;;;27.40;57.00;;;;;;5030456;28;20026;-58
2022/09/23 09:52:25;;;;;;;1.30;0.90;;;28.50;53.20;;;;;;5007955;28;20026;-58
2022/09/23 09:54:52;;;;;;;2.00;1.30;;;30.50;49.70;;;;;;5005729;28;20066;-59
2022/09/23 09:57:37;;;;;;;1.95;1.42;;;29.40;50.50;;;;;;5011766;28;20071;-56
2022/09/23 10:00:20;;;;;;;3.33;1.30;;;30.10;51.90;;;;;;5030341;28;20104;-57
2022/09/23 10:03:00;;;;;;;1.42;1.33;;;29.80;49.10;;;;;;5028530;28;20028;-56
2022/09/23 10:05:41;;;;;;;3.55;1.13;;;29.80;49.20;;;;;;5030338;28;20022;-56
2022/09/23 10:08:36;;;;;;;1.73;1.23;;;30.20;48.70;;;;;;5028977;28;20033;-57
2022/09/23 10:11:14;;;;;;;1.15;1.05;;;29.20;49.90;;;;;;5030260;28;20022;-56
2022/09/23 10:13:41;;;;;;;2.13;1.10;;;29.60;52.80;;;;;;5029686;28;20026;-55
2022/09/23 10:16:08;;;;;;;2.55;1.00;;;29.50;51.30;;;;;;5030334;28;20415;-56
2022/09/23 10:18:37;;;;;;;1.70;1.00;;;29.90;53.90;;;;;;5029874;28;20025;-55
2022/09/23 10:21:11;;;;;;;1.88;1.45;;;30.30;48.90;;;;;;5030183;28;20029;-56
2022/09/23 10:23:43;;;;;;;4.30;1.13;;;29.40;47.00;;;;;;5029641;28;20030;-56
2022/09/23 10:26:11;;;;;;;2.58;1.10;;;28.40;50.10;;;;;;5029915;28;20022;-56
2022/09/23 10:28:49;;;;;;;1.35;1.08;;;29.60;50.30;;;;;;5030032;28;20053;-56
2022/09/23 10:31:25;;;;;;;1.45;1.00;;;27.90;47.80;;;;;;5029824;28;20419;-56
2022/09/23 10:33:58;;;;;;;2.15;1.25;;;28.30;47.20;;;;;;5029535;28;20095;-56
2022/09/23 10:36:25;;;;;;;3.38;1.30;;;27.80;49.40;;;;;;5029999;28;20524;-56
2022/09/23 10:48:13;;;;;;;2.55;1.42;;;30.30;49.10;;;;;;5033799;28;20043;-56
2022/09/23 10:50:50;;;;;;;2.33;1.52;;;29.90;47.40;;;;;;5032184;28;20450;-56
2022/09/23 10:53:19;;;;;;;2.70;1.55;;;28.50;49.20;;;;;;5032958;28;20041;-58
2022/09/23 10:55:50;;;;;;;2.22;1.08;;;28.20;47.70;;;;;;5033673;28;20021;-57
2022/09/23 10:58:26;;;;;;;1.05;0.95;;;29.40;49.30;;;;;;5033311;28;20116;-56
2022/09/23 11:01:08;;;;;;;2.05;1.48;;;29.90;48.70;;;;;;5032079;28;20104;-57
2022/09/23 11:04:09;;;;;;;3.10;1.30;;;30.30;47.00;;;;;;5032828;28;20531;-57
2022/09/23 11:06:53;;;;;;;1.75;1.30;;;30.50;46.10;;;;;;5033212;28;20104;-58
2022/09/23 11:09:41;;;;;;;2.83;1.40;;;30.00;46.60;;;;;;5033585;28;20495;-59
2022/09/23 11:12:38;;;;;;;1.60;1.20;;;28.00;48.20;;;;;;5033231;28;20030;-59
2022/09/23 11:15:16;;;;;;;1.38;1.27;;;28.10;52.50;;;;;;5033251;28;20013;-58
2022/09/23 11:18:09;;;;;;;4.35;1.30;;;28.20;47.50;;;;;;5032973;28;20108;-58
2022/09/23 11:20:43;;;;;;;2.20;1.40;;;26.70;48.60;;;;;;5033225;28;20124;-58
2022/09/23 11:23:19;;;;;;;2.20;1.45;;;27.00;52.30;;;;;;5032527;28;20469;-58
2022/09/23 11:26:13;;;;;;;2.75;1.30;;;27.40;49.60;;;;;;5032892;28;20434;-58
2022/09/23 11:29:02;;;;;;;1.10;0.90;;;27.30;50.90;;;;;;5032739;28;20026;-57
2022/09/23 11:31:53;;;;;;;2.05;1.65;;;28.10;51.40;;;;;;5032783;28;20021;-58
2022/09/23 11:34:29;;;;;;;;;;;26.20;48.00;;;;;;5032695;28;20029;-58
2022/09/23 11:37:29;;;;;;;3.45;1.63;;;27.30;49.40;;;;;;5032513;28;19996;-57
2022/09/23 11:40:11;;;;;;;1.27;1.17;;;27.00;50.00;;;;;;5028569;28;20029;-58
2022/09/23 11:42:57;;;;;;;3.38;1.73;;;27.50;49.50;;;;;;5032195;28;20360;-57
2022/09/23 11:45:40;;;;;;;4.32;1.70;;;26.60;48.20;;;;;;5032487;28;20467;-57
2022/09/23 11:48:17;;;;;;;2.58;1.45;;;26.40;50.90;;;;;;5032600;28;20387;-58
2022/09/23 11:51:08;;;;;;;1.95;1.45;;;26.60;51.00;;;;;;5031128;28;20021;-57
2022/09/23 11:53:42;;;;;;;2.67;1.52;;;27.10;48.80;;;;;;5031542;28;20463;-58
2022/09/23 11:56:15;;;;;;;2.72;1.38;;;27.40;48.30;;;;;;5032296;28;20069;-56
2022/09/23 11:59:08;;;;;;;2.92;1.13;;;26.50;51.10;;;;;;5031428;28;20088;-58
2022/09/23 12:02:16;;;;;;;2.03;1.30;;;26.00;51.60;;;;;;5032232;28;20022;-57
2022/09/23 12:04:47;;;;;;;2.50;1.20;;;25.90;48.20;;;;;;5030183;28;20053;-58
2022/09/23 12:07:23;;;;;;;2.08;1.27;;;25.20;51.00;;;;;;5032162;28;20108;-58
2022/09/23 12:10:08;;;;;;;3.55;1.58;;;23.40;52.50;;;;;;5032134;28;20471;-58
2022/09/23 12:12:58;;;;;;;1.88;1.40;;;23.30;55.00;;;;;;5031526;28;20033;-58
2022/09/23 12:15:27;;;;;;;1.45;1.25;;;22.90;53.20;;;;;;5032114;28;20028;-57
2022/09/23 12:18:08;;;;;;;4.82;1.45;;;22.70;56.20;;;;;;5032200;28;20478;-57
2022/09/23 12:20:59;;;;;;;1.98;1.35;;;22.20;57.60;;;;;;5030676;28;20526;-57
2022/09/23 12:23:56;;;;;;;5.20;1.77;;;22.90;55.90;;;;;;5031544;28;20017;-57
2022/09/23 12:26:24;;;;;;;3.28;1.73;;;23.00;55.10;;;;;;5031836;28;20535;-57
2022/09/23 12:28:58;;;;;;;2.25;1.52;;;22.50;53.80;;;;;;5031673;28;20029;-57
2022/09/23 12:31:29;;;;;;;3.50;1.73;;;21.70;56.80;;;;;;5031901;28;20017;-57
2022/09/23 12:33:59;;;;;;;2.13;1.30;;;21.70;57.80;;;;;;5031268;28;20113;-57
2022/09/23 12:36:32;;;;;;;;;;;22.20;57.00;;;;;;5032038;28;20034;-57
2022/09/23 12:39:04;;;;;;;2.85;1.58;;;22.40;57.30;;;;;;5031475;28;19913;-57
2022/09/23 12:41:39;;;;;;;2.08;1.40;;;22.80;55.70;;;;;;5031465;28;20049;-57
2022/09/23 12:44:11;;;;;;;5.18;1.90;;;22.90;58.70;;;;;;5029683;28;20084;-58
2022/09/23 12:46:39;;;;;;;5.65;1.42;;;23.10;54.70;;;;;;5031402;28;20039;-58
2022/09/23 12:49:20;;;;;;;2.63;1.35;;;23.20;56.50;;;;;;5031350;28;20124;-58
2022/09/23 12:52:12;;;;;;;3.70;1.75;;;23.40;55.40;;;;;;5031252;28;20112;-58
2022/09/23 12:54:46;;;;;;;2.70;1.40;;;23.30;52.80;;;;;;5030723;28;20495;-57
2022/09/23 12:57:32;;;;;;;2.28;1.77;;;22.30;54.40;;;;;;5031114;28;20384;-57
2022/09/23 13:00:11;;;;;;;4.30;1.60;;;22.10;56.00;;;;;;5027162;28;20067;-58
2022/09/23 13:02:46;;;;;;;4.88;1.73;;;21.30;57.00;;;;;;5030667;28;20021;-58
2022/09/23 13:08:11;;;;;;;4.65;1.52;;;21.60;56.90;;;;;;5031017;28;20407;-58
2022/09/23 13:10:40;;;;;;;2.10;1.40;;;21.80;59.10;;;;;;5030913;28;20075;-58
2022/09/23 13:13:14;;;;;;;4.15;1.48;;;22.00;55.90;;;;;;5030706;28;20030;-58
2022/09/23 13:15:40;;;;;;;1.42;1.33;;;21.80;56.60;;;;;;5030936;28;20030;-58
2022/09/23 13:18:20;;;;;;;2.10;1.40;;;21.90;56.70;;;;;;5030983;28;20033;-57
2022/09/23 13:20:47;;;;;;;4.75;1.80;;;21.70;55.90;;;;;;5030960;28;20040;-58
2022/09/23 13:23:23;;;;;;;2.22;1.52;;;21.70;57.40;;;;;;5030256;28;20033;-58
2022/09/23 13:25:52;;;;;;;3.28;1.35;;;21.50;58.00;;;;;;5030761;28;20104;-58
2022/09/23 13:28:26;;;;;;;1.63;1.48;;;21.30;57.50;;;;;;5029469;28;20033;-58
2022/09/23 13:30:52;;;;;;;3.33;1.55;;;21.30;57.70;;;;;;5030751;28;20022;-58
2022/09/23 13:33:41;;;;;;;1.88;1.50;;;21.10;59.80;;;;;;5030128;28;20676;-57
2022/09/23 13:36:16;;;;;;;1.52;1.30;;;21.00;57.70;;;;;;5030816;28;20029;-57